Main page
METAR-TAF:

METAR-TAF

Airports :

Florence Airport

Florence, Italy

latitude: 43-48N, longitude: 011-12E, elevation: 40 m

Current weather observation

The report was made 40 minutes ago, at 10:50 UTC
Wind 3 kt from the East/Northeast, varying between Northeast and South/Southeast
Temperature 9°C
Humidity 87%
Pressure 1024 hPa
Visibility: 8000 m
Scattered clouds at a height of 3000 ft
Broken clouds at a height of 5000 ft
rain

METAR: LIRQ 061050Z 07003KT 050V160 8000 RA SCT030 BKN050 09/07 Q1024

Time: 12:30 (11:30 UTC)

Forecast

The report was made 6 hours and 30 minutes ago, at 05:00 UTC
Forecast valid from 06 at 06 UTC to 07 at 06 UTC
Wind 5 kt from variable directions
Visibility 10 km or more
Broken clouds at a height of 3000 ft
Temporary
from 06 at 14 UTC to 06 at 21 UTC
Visibility: 4000 m
rain showers

TAF: LIRQ 060500Z 0606/0706 VRB05KT 9999 BKN030 TEMPO 0614/0621 4000 SHRA

Weather observations and forecasts of more than 4000 airports (METAR and TAF reports).

The available stations are represented by yellow and red dots on the map.

Hover mouse over dot to see the name of the station.

Then click to see weather observations and forecasts.

To change the map : click on the green buttons with a black cross to zoom in, on the green button with a dash to zoom out, or on the green arrows for adjacent maps.


METAR-TAF: